»·PEaware :: N78ER KBFL-KMHV

N78ER :: KBFL-KMHV

FLIGHT INFORMATION

Flight Status: Arrived
Operator: Privately registered:
United States
More flights under this callsign
Pilot: Ilya T. (18745)
Aircraft: CESSNA 172 SKYHAWK
(C172)
More flights by this aircraft type
Origin: KBFL Meadows
United States
Destination: KMHV Mojave
United States
More flights between these airports :: More routes between these airports
Route:
File this flight plan on PilotEdge
Remarks: CAT 6 RAITING
Altitude:
(Current/Filed)
7,500ft
Speed:
(Current/Filed)
120kts
Departed: 16-Apr-18 08:31 PM
Arrived: 16-Apr-18 09:02 PM
Distance/Time
Traveled:
50nm/0:31
Distance/Time
To Go:
Arrived

Flight Plot

Page will automatically refresh every two minutes.


Map Options




Map Legend


Flown Route
Filed Route
Departure Airport
Arrival Airport
Navaid (VOR, NDB)
Fix

Horizontal Profiles

Position Reports

Time Latitude Longitude Heading Altitude Ground
Speed
16-Apr-18 20:19 35.426192 -119.042681 179 499ft 0kts
16-Apr-18 20:20 35.426192 -119.042681 179 499ft 0kts
16-Apr-18 20:21 35.426192 -119.042681 179 499ft 0kts
16-Apr-18 20:22 35.426192 -119.042681 179 499ft 0kts
16-Apr-18 20:23 35.426192 -119.042681 179 499ft 0kts
16-Apr-18 20:24 35.426192 -119.042681 179 499ft 0kts
16-Apr-18 20:25 35.426192 -119.042681 179 499ft 0kts
16-Apr-18 20:26 35.425907 -119.042825 210 499ft 5kts
16-Apr-18 20:27 35.425404 -119.044273 234 499ft 4kts
16-Apr-18 20:28 35.425344 -119.044646 286 499ft 0kts
16-Apr-18 20:29 35.425344 -119.044646 286 499ft 0kts
16-Apr-18 20:30 35.431106 -119.053707 315 715ft 66kts
16-Apr-18 20:31 35.446231 -119.063060 37 1667ft 78kts
16-Apr-18 20:32 35.442013 -119.038216 141 2282ft 114kts
16-Apr-18 20:33 35.421862 -119.015747 132 3235ft 102kts
16-Apr-18 20:34 35.405859 -118.987453 112 3975ft 98kts
16-Apr-18 20:35 35.393422 -118.958109 110 4775ft 97kts
16-Apr-18 20:36 35.381279 -118.928449 109 5577ft 98kts
16-Apr-18 20:37 35.368468 -118.897138 110 6235ft 109kts
16-Apr-18 20:38 35.354425 -118.862954 110 6841ft 114kts
16-Apr-18 20:39 35.340013 -118.827776 111 7448ft 116kts
16-Apr-18 20:40 35.323252 -118.787037 112 7460ft 142kts
16-Apr-18 20:41 35.305197 -118.743164 114 7445ft 145kts
16-Apr-18 20:42 35.288556 -118.702743 115 7431ft 148kts
16-Apr-18 20:43 35.269832 -118.657333 116 7416ft 150kts
16-Apr-18 20:44 35.250846 -118.611346 119 7401ft 153kts
16-Apr-18 20:45 35.231479 -118.564469 119 7385ft 154kts
16-Apr-18 20:46 35.212282 -118.518067 119 7382ft 152kts
16-Apr-18 20:47 35.193414 -118.472500 121 7381ft 148kts
16-Apr-18 20:48 35.175201 -118.428629 121 7380ft 142kts
16-Apr-18 20:49 35.157718 -118.386648 122 6998ft 135kts
16-Apr-18 20:50 35.142127 -118.349266 123 5966ft 121kts
16-Apr-18 20:51 35.118405 -118.322744 150 5604ft 122kts
16-Apr-18 20:52 35.101439 -118.291803 80 5093ft 128kts
16-Apr-18 20:53 35.107567 -118.250869 62 4841ft 125kts
16-Apr-18 20:54 35.116601 -118.211476 69 4741ft 117kts
16-Apr-18 20:55 35.110921 -118.173865 121 4544ft 112kts
16-Apr-18 20:56 35.097601 -118.143447 132 3916ft 94kts
16-Apr-18 20:57 35.083850 -118.116761 112 3525ft 93kts
16-Apr-18 20:58 35.068760 -118.101907 219 3213ft 63kts
16-Apr-18 20:59 35.059307 -118.113692 273 3171ft 57kts
16-Apr-18 21:00 35.059046 -118.130760 284 2990ft 50kts
16-Apr-18 21:01 35.059169 -118.145042 272 2777ft 35kts
16-Apr-18 21:02 35.059149 -118.150453 271 2768ft 13kts
16-Apr-18 21:03 35.059131 -118.156672 263 2768ft 18kts
16-Apr-18 21:04 35.057619 -118.155730 90 2768ft 11kts
16-Apr-18 21:05 35.056573 -118.152135 173 2768ft 0kts
16-Apr-18 21:06 35.056573 -118.152135 173 2768ft 0kts
16-Apr-18 21:07 35.056573 -118.152135 173 2768ft 0kts
16-Apr-18 21:08 35.056573 -118.152135 173 2768ft 0kts

Navigation Log

Ident Type
Flight plan parsing failed, navigation log unavailable